Time;durP1;ratioP1;P1;durP2;ratioP2;P2;SDS_P1;SDS_P2;PMS_P1;PMS_P2;Temp;Humidity;BMP_temperature;BMP_pressure;BME280_temperature;BME280_humidity;BME280_pressure;Samples;Min_cycle;Max_cycle;Signal;HPM_P1;HPM_P2
2020/12/04 00:01:27;;;;;;;6.03;3.27;;;0.00;99.90;;;;;;5108711;28;20176;-77
2020/12/04 00:03:52;;;;;;;3.33;3.03;;;0.00;99.90;;;;;;5089648;28;20184;-77
2020/12/04 00:06:18;;;;;;;5.00;2.93;;;0.00;99.90;;;;;;5089682;28;20212;-78
2020/12/04 00:08:43;;;;;;;5.03;3.07;;;0.00;99.90;;;;;;5089664;28;20298;-77
2020/12/04 00:11:09;;;;;;;4.40;2.97;;;0.00;99.90;;;;;;5108368;28;20606;-78
2020/12/04 00:13:35;;;;;;;4.00;2.77;;;0.00;99.90;;;;;;5108666;28;20227;-78
2020/12/04 00:16:00;;;;;;;3.17;2.23;;;-0.10;99.90;;;;;;5089799;28;20222;-78
2020/12/04 00:18:27;;;;;;;4.63;3.07;;;-0.10;99.90;;;;;;5089478;28;20211;-79
2020/12/04 00:20:52;;;;;;;6.50;4.10;;;0.00;99.90;;;;;;5108198;28;20232;-77
2020/12/04 00:23:18;;;;;;;5.00;3.60;;;-0.10;99.90;;;;;;5102943;28;20187;-78
2020/12/04 00:25:43;;;;;;;3.97;2.60;;;-0.10;99.90;;;;;;5083078;27;20276;-78
2020/12/04 00:28:09;;;;;;;5.87;3.87;;;-0.10;99.90;;;;;;5107475;27;20196;-77
2020/12/04 00:30:34;;;;;;;4.03;3.23;;;-0.10;99.90;;;;;;5089341;28;20180;-78
2020/12/04 00:33:00;;;;;;;5.23;3.13;;;-0.10;99.90;;;;;;5108375;28;20211;-79
2020/12/04 00:35:26;;;;;;;7.20;4.10;;;-0.10;99.90;;;;;;5089088;28;20210;-79
2020/12/04 00:37:51;;;;;;;5.13;3.93;;;-0.10;99.90;;;;;;5088308;28;20276;-78
2020/12/04 00:40:17;;;;;;;4.80;3.80;;;-0.10;99.90;;;;;;5088709;28;20213;-79
2020/12/04 00:42:45;;;;;;;3.97;3.13;;;-0.10;99.90;;;;;;5088480;28;20188;-77
2020/12/04 00:45:10;;;;;;;5.30;3.80;;;-0.10;99.90;;;;;;5088760;28;20192;-78
2020/12/04 00:47:36;;;;;;;5.87;3.57;;;-0.10;99.90;;;;;;5107639;28;20187;-78
2020/12/04 00:50:01;;;;;;;6.77;4.97;;;-0.10;99.90;;;;;;5088599;28;20204;-78
2020/12/04 00:52:30;;;;;;;5.47;3.00;;;-0.10;99.90;;;;;;5088699;28;20188;-78
2020/12/04 00:54:55;;;;;;;5.23;3.43;;;-0.10;99.90;;;;;;5087532;28;21090;-77
2020/12/04 00:57:21;;;;;;;9.60;6.03;;;-0.10;99.90;;;;;;5106460;28;20184;-77
2020/12/04 00:59:47;;;;;;;8.53;5.57;;;-0.10;99.90;;;;;;5088065;28;20631;-79
2020/12/04 01:02:12;;;;;;;8.70;5.40;;;-0.10;99.90;;;;;;5088266;28;20191;-77
2020/12/04 01:04:38;;;;;;;13.73;7.40;;;-0.10;99.90;;;;;;5088363;28;20735;-78
2020/12/04 01:07:04;;;;;;;6.70;4.90;;;-0.10;99.90;;;;;;5106809;28;20187;-78
2020/12/04 01:09:31;;;;;;;5.87;4.27;;;-0.10;99.90;;;;;;5107629;28;20204;-77
2020/12/04 01:11:57;;;;;;;8.27;3.93;;;-0.10;99.90;;;;;;5088325;28;20253;-78
2020/12/04 01:14:22;;;;;;;5.93;4.33;;;-0.20;99.90;;;;;;5088147;28;20204;-78
2020/12/04 01:16:48;;;;;;;4.77;3.47;;;-0.10;99.90;;;;;;5088142;28;20184;-79
2020/12/04 01:19:13;;;;;;;5.33;4.53;;;-0.10;99.90;;;;;;5107019;28;20204;-78
2020/12/04 01:21:39;;;;;;;7.10;4.80;;;0.00;99.90;;;;;;5088156;28;20245;-78
2020/12/04 01:24:04;;;;;;;5.13;2.83;;;0.00;99.90;;;;;;5088097;28;20192;-79
2020/12/04 01:26:30;;;;;;;4.63;3.77;;;0.00;99.90;;;;;;5088082;28;20214;-78
2020/12/04 01:28:56;;;;;;;6.50;4.27;;;0.00;99.90;;;;;;5088104;28;20271;-79
2020/12/04 01:31:21;;;;;;;5.73;5.03;;;0.00;99.90;;;;;;5106518;28;20172;-78
2020/12/04 01:33:47;;;;;;;6.63;4.17;;;0.00;99.90;;;;;;5107208;28;20192;-78
2020/12/04 01:36:15;;;;;;;4.30;3.20;;;0.10;99.90;;;;;;5110848;28;20248;-78
2020/12/04 01:38:42;;;;;;;4.57;3.30;;;0.10;99.90;;;;;;5110299;28;20196;-77
2020/12/04 01:41:07;;;;;;;5.97;3.37;;;0.10;99.90;;;;;;5091478;28;20613;-78
2020/12/04 01:43:33;;;;;;;3.80;2.93;;;0.10;99.90;;;;;;5110675;28;20688;-78
2020/12/04 01:45:59;;;;;;;2.77;2.30;;;0.10;99.90;;;;;;5091123;28;20199;-78
2020/12/04 01:48:25;;;;;;;4.33;3.63;;;0.20;99.90;;;;;;5110034;28;20199;-78
2020/12/04 01:50:52;;;;;;;6.07;2.47;;;0.10;99.90;;;;;;5109496;28;20666;-78
2020/12/04 01:53:22;;;;;;;4.47;3.10;;;0.10;99.90;;;;;;5109929;28;20183;-78
2020/12/04 01:55:48;;;;;;;4.10;3.07;;;0.10;99.90;;;;;;5109851;28;20207;-80
2020/12/04 01:58:16;;;;;;;5.80;3.97;;;0.20;99.90;;;;;;5091652;28;20680;-79
2020/12/04 02:00:43;;;;;;;8.13;5.87;;;0.20;99.90;;;;;;5109562;28;20678;-78
2020/12/04 02:03:10;;;;;;;7.17;4.10;;;0.20;99.90;;;;;;5091146;28;20184;-79
2020/12/04 02:05:43;;;;;;;6.73;4.03;;;0.20;99.90;;;;;;5091069;28;20213;-78
2020/12/04 02:08:19;;;;;;;8.70;5.97;;;0.30;99.90;;;;;;5091050;28;20208;-79
2020/12/04 02:10:54;;;;;;;7.67;4.70;;;0.30;99.90;;;;;;5109019;28;20641;-78
2020/12/04 02:13:20;;;;;;;7.97;3.90;;;0.30;99.90;;;;;;5109794;28;20187;-78
2020/12/04 02:15:45;;;;;;;4.90;4.00;;;0.40;99.90;;;;;;5091780;28;20757;-78
2020/12/04 02:18:14;;;;;;;5.17;4.13;;;0.40;99.90;;;;;;5091381;28;20307;-78
2020/12/04 02:20:40;;;;;;;4.87;3.37;;;0.30;99.90;;;;;;5091064;28;20172;-78
2020/12/04 02:23:05;;;;;;;3.33;2.53;;;0.40;99.90;;;;;;5111167;27;20176;-78
2020/12/04 02:25:31;;;;;;;4.90;4.03;;;0.40;99.90;;;;;;5090801;28;20219;-78
2020/12/04 02:27:57;;;;;;;6.70;4.93;;;0.40;99.90;;;;;;5091326;28;20188;-78
2020/12/04 02:30:30;;;;;;;6.63;5.73;;;0.40;99.90;;;;;;5110524;28;20768;-79
2020/12/04 02:32:56;;;;;;;4.60;4.03;;;0.40;99.90;;;;;;5108666;28;20322;-78
2020/12/04 02:35:22;;;;;;;7.13;3.93;;;0.40;99.90;;;;;;5091066;28;20291;-80
2020/12/04 02:37:47;;;;;;;5.47;4.07;;;0.40;99.90;;;;;;5091454;28;20662;-77
2020/12/04 02:40:13;;;;;;;5.23;4.00;;;0.40;99.90;;;;;;5110201;28;20838;-78
2020/12/04 02:42:42;;;;;;;7.00;4.13;;;0.50;99.90;;;;;;5091244;28;20222;-80
2020/12/04 02:45:08;;;;;;;3.63;3.03;;;0.60;99.90;;;;;;5090876;28;20188;-78
2020/12/04 02:47:33;;;;;;;5.50;2.93;;;0.50;99.90;;;;;;5090761;28;20251;-78
2020/12/04 02:49:59;;;;;;;3.93;3.57;;;0.50;99.90;;;;;;5090711;28;20293;-78
2020/12/04 02:52:25;;;;;;;4.13;3.13;;;0.50;99.90;;;;;;5090962;28;20657;-79
2020/12/04 02:54:51;;;;;;;7.43;4.17;;;0.50;99.90;;;;;;5091088;28;20254;-79
2020/12/04 02:57:17;;;;;;;5.17;4.03;;;0.50;99.90;;;;;;5090921;28;20215;-78
2020/12/04 02:59:43;;;;;;;4.97;3.67;;;0.50;99.90;;;;;;5090574;28;20211;-79
2020/12/04 03:02:09;;;;;;;4.40;3.47;;;0.50;99.90;;;;;;5091345;28;20195;-79
2020/12/04 03:04:36;;;;;;;8.10;6.30;;;0.50;99.90;;;;;;5109212;28;20263;-78
2020/12/04 03:07:02;;;;;;;3.80;3.47;;;0.40;99.90;;;;;;5109823;28;20188;-78
2020/12/04 03:09:28;;;;;;;5.73;4.13;;;0.50;99.90;;;;;;5090403;28;20208;-78
2020/12/04 03:11:57;;;;;;;5.67;3.97;;;0.40;99.90;;;;;;5090574;28;20573;-79
2020/12/04 03:14:24;;;;;;;5.87;4.50;;;0.40;99.90;;;;;;5090448;28;22178;-78
2020/12/04 03:16:50;;;;;;;6.77;3.63;;;0.50;99.90;;;;;;5090170;28;20620;-78
2020/12/04 03:19:15;;;;;;;5.37;3.97;;;0.50;99.90;;;;;;5090165;28;20299;-77
2020/12/04 03:21:42;;;;;;;4.83;4.23;;;0.50;99.90;;;;;;5109275;28;20187;-78
2020/12/04 03:24:07;;;;;;;5.10;3.60;;;0.50;99.90;;;;;;5108332;28;20303;-78
2020/12/04 03:26:33;;;;;;;6.87;4.00;;;0.40;99.90;;;;;;5089836;28;20401;-78
2020/12/04 03:28:59;;;;;;;5.67;3.90;;;0.50;99.90;;;;;;5089917;28;20997;-78
2020/12/04 03:31:24;;;;;;;5.47;3.80;;;0.50;99.90;;;;;;5108864;28;20184;-78
2020/12/04 03:33:50;;;;;;;4.97;3.87;;;0.40;99.90;;;;;;5089885;28;20199;-78
2020/12/04 03:36:15;;;;;;;4.73;3.93;;;0.40;99.90;;;;;;5089507;28;20204;-78
2020/12/04 03:38:41;;;;;;;4.73;3.90;;;0.40;99.90;;;;;;5109204;28;20208;-78
2020/12/04 03:41:06;;;;;;;6.53;4.37;;;0.50;99.90;;;;;;5108902;28;20257;-78
2020/12/04 03:43:32;;;;;;;5.43;4.13;;;0.50;99.90;;;;;;5089788;28;20184;-78
2020/12/04 03:45:57;;;;;;;4.77;3.67;;;0.50;99.90;;;;;;5108143;28;20180;-79
2020/12/04 03:48:23;;;;;;;5.20;3.97;;;0.50;99.90;;;;;;5088954;28;20207;-79
2020/12/04 03:50:49;;;;;;;3.80;3.00;;;0.50;99.90;;;;;;5107846;28;20876;-78
2020/12/04 03:53:14;;;;;;;5.83;4.03;;;0.50;99.90;;;;;;5090421;28;20187;-78
2020/12/04 03:55:40;;;;;;;7.40;3.63;;;0.50;99.90;;;;;;5089471;28;20204;-77
2020/12/04 03:58:06;;;;;;;4.67;3.13;;;0.50;99.90;;;;;;5107963;28;20192;-78
2020/12/04 04:00:31;;;;;;;7.40;4.17;;;0.50;99.90;;;;;;5089754;28;20676;-78
2020/12/04 04:02:57;;;;;;;5.67;4.17;;;0.50;99.90;;;;;;5108863;28;20180;-79
2020/12/04 04:05:22;;;;;;;4.87;4.00;;;0.50;99.90;;;;;;5108568;28;20191;-77
2020/12/04 04:07:51;;;;;;;5.77;4.53;;;0.50;99.90;;;;;;5089756;28;20264;-77
2020/12/04 04:10:16;;;;;;;3.93;3.13;;;0.50;99.90;;;;;;5089549;28;20196;-78
2020/12/04 04:12:42;;;;;;;4.40;3.17;;;0.50;99.90;;;;;;5108761;28;20184;-78
2020/12/04 04:15:07;;;;;;;5.13;3.10;;;0.50;99.90;;;;;;5109431;28;20212;-78
2020/12/04 04:17:33;;;;;;;5.43;3.70;;;0.50;99.90;;;;;;5108850;28;20240;-78
2020/12/04 04:19:58;;;;;;;5.57;3.27;;;0.50;99.90;;;;;;5090023;28;20208;-78
2020/12/04 04:22:24;;;;;;;6.97;3.30;;;0.50;99.90;;;;;;5090428;28;20241;-77
2020/12/04 04:24:50;;;;;;;6.83;4.27;;;0.50;99.90;;;;;;5089533;28;20272;-77
2020/12/04 04:27:15;;;;;;;5.30;4.47;;;0.50;99.90;;;;;;5108489;28;20188;-78
2020/12/04 04:29:41;;;;;;;4.40;3.63;;;0.40;99.90;;;;;;5108925;28;20223;-79
2020/12/04 04:32:06;;;;;;;6.17;3.83;;;0.40;99.90;;;;;;5090024;28;20196;-78
2020/12/04 04:34:32;;;;;;;4.50;4.07;;;0.40;99.90;;;;;;5090121;28;20211;-77
2020/12/04 04:36:57;;;;;;;5.33;3.90;;;0.30;99.90;;;;;;5089591;28;20184;-78
2020/12/04 04:39:23;;;;;;;3.40;3.10;;;0.40;99.90;;;;;;5089516;28;20214;-77
2020/12/04 04:41:56;;;;;;;8.57;4.43;;;0.30;99.90;;;;;;5108869;28;20190;-79
2020/12/04 04:44:22;;;;;;;8.80;4.13;;;0.30;99.90;;;;;;5108701;28;20188;-78
2020/12/04 04:47:05;;;;;;;5.33;3.87;;;0.30;99.90;;;;;;5109152;28;20177;-77
2020/12/04 04:49:36;;;;;;;6.63;3.33;;;0.30;99.90;;;;;;5089660;28;20237;-78
2020/12/04 04:52:05;;;;;;;6.53;3.80;;;0.30;99.90;;;;;;5108437;28;20187;-78
2020/12/04 04:54:39;;;;;;;5.40;3.77;;;0.40;99.90;;;;;;5108229;28;20211;-78
2020/12/04 04:57:05;;;;;;;5.97;4.03;;;0.30;99.90;;;;;;5106355;28;20183;-78
2020/12/04 04:59:30;;;;;;;6.43;4.43;;;0.30;99.90;;;;;;5089441;28;20574;-78
2020/12/04 05:01:56;;;;;;;5.33;3.70;;;0.30;99.90;;;;;;5089846;28;20266;-79
2020/12/04 05:04:22;;;;;;;8.53;4.87;;;0.30;99.90;;;;;;5089780;28;20238;-78
2020/12/04 05:06:47;;;;;;;7.23;4.60;;;0.20;99.90;;;;;;5108598;28;20654;-79
2020/12/04 05:09:20;;;;;;;8.93;5.03;;;0.20;99.90;;;;;;5089088;28;20265;-79
2020/12/04 05:12:00;;;;;;;4.47;3.30;;;0.30;99.90;;;;;;5108067;28;20213;-78
2020/12/04 05:14:26;;;;;;;6.17;4.00;;;0.30;99.90;;;;;;5088814;28;20192;-78
2020/12/04 05:16:57;;;;;;;8.50;4.53;;;0.30;99.90;;;;;;5107758;28;20180;-78
2020/12/04 05:19:31;;;;;;;4.67;3.53;;;0.30;99.90;;;;;;5108000;28;20825;-77
2020/12/04 05:22:07;;;;;;;6.37;3.90;;;0.30;99.90;;;;;;5105492;28;20195;-77
2020/12/04 05:24:32;;;;;;;5.37;3.60;;;0.30;99.90;;;;;;5088708;28;20184;-78
2020/12/04 05:26:58;;;;;;;3.80;2.77;;;0.30;99.90;;;;;;5107998;28;20187;-78
2020/12/04 05:29:36;;;;;;;6.00;3.77;;;0.30;99.90;;;;;;5089200;28;20260;-79
2020/12/04 05:32:15;;;;;;;4.63;3.20;;;0.20;99.90;;;;;;5107410;28;20204;-78
2020/12/04 05:34:41;;;;;;;5.67;3.83;;;0.30;99.90;;;;;;5088844;28;20208;-77
2020/12/04 05:37:10;;;;;;;4.90;3.63;;;0.20;99.90;;;;;;5088867;28;20188;-78
2020/12/04 05:39:47;;;;;;;5.70;3.90;;;0.20;99.90;;;;;;5088205;28;20204;-78
2020/12/04 05:42:32;;;;;;;6.63;4.17;;;0.20;99.90;;;;;;5088337;28;20299;-77
2020/12/04 05:44:59;;;;;;;3.83;3.27;;;0.20;99.90;;;;;;5088663;28;20544;-78
2020/12/04 05:47:37;;;;;;;3.67;3.37;;;0.20;99.90;;;;;;5088606;28;20191;-79
2020/12/04 05:50:05;;;;;;;4.73;3.50;;;0.20;99.90;;;;;;5107901;28;20214;-78
2020/12/04 05:52:33;;;;;;;5.10;3.37;;;0.10;99.90;;;;;;5108092;28;20644;-78
2020/12/04 05:55:00;;;;;;;5.80;3.90;;;0.10;99.90;;;;;;5107583;28;20200;-77
2020/12/04 05:57:28;;;;;;;4.00;3.07;;;0.20;99.90;;;;;;5107734;28;20183;-77
2020/12/04 05:59:53;;;;;;;3.80;3.37;;;0.10;99.90;;;;;;5107096;28;20192;-78
2020/12/04 06:02:19;;;;;;;4.47;3.50;;;0.20;99.90;;;;;;5089092;28;20217;-78
2020/12/04 06:04:45;;;;;;;6.60;4.17;;;0.20;99.90;;;;;;5107642;28;20199;-79
2020/12/04 06:07:24;;;;;;;5.80;4.03;;;0.10;99.90;;;;;;5107565;28;20184;-77
2020/12/04 06:09:58;;;;;;;5.90;3.60;;;0.10;99.90;;;;;;5088328;28;20216;-77
2020/12/04 06:12:24;;;;;;;5.30;3.83;;;0.10;99.90;;;;;;5106591;28;20213;-77
2020/12/04 06:14:51;;;;;;;4.30;3.23;;;0.10;99.90;;;;;;5088247;28;20851;-77
2020/12/04 06:17:17;;;;;;;4.70;4.07;;;0.10;99.90;;;;;;5107477;28;20201;-78
2020/12/04 06:19:44;;;;;;;5.77;4.40;;;0.10;99.90;;;;;;5107934;28;20208;-77
2020/12/04 06:22:13;;;;;;;6.43;4.13;;;0.10;99.90;;;;;;5111883;27;20181;-77
2020/12/04 06:24:54;;;;;;;4.10;3.20;;;0.10;99.90;;;;;;5092691;28;20180;-77
2020/12/04 06:27:39;;;;;;;4.60;2.53;;;0.10;99.90;;;;;;5091729;28;20196;-77
2020/12/04 06:30:07;;;;;;;4.27;3.87;;;0.10;99.90;;;;;;5091829;28;20210;-78
2020/12/04 06:32:37;;;;;;;4.00;2.90;;;0.20;99.90;;;;;;5110601;28;20191;-77
2020/12/04 06:35:05;;;;;;;6.00;4.07;;;0.20;99.90;;;;;;5091548;28;20207;-77
2020/12/04 06:37:44;;;;;;;4.60;3.57;;;0.20;99.90;;;;;;5109701;28;20172;-78
2020/12/04 06:40:27;;;;;;;3.97;3.03;;;0.20;99.90;;;;;;5091433;28;20674;-78
2020/12/04 06:42:55;;;;;;;3.97;3.37;;;0.20;99.90;;;;;;5090905;28;20184;-78
2020/12/04 06:45:21;;;;;;;6.17;3.43;;;0.30;99.90;;;;;;5090933;28;20277;-77
2020/12/04 06:48:10;;;;;;;7.83;4.17;;;0.30;99.90;;;;;;5109794;28;20172;-78
2020/12/04 06:50:43;;;;;;;6.00;3.50;;;0.20;99.90;;;;;;5109918;28;20177;-78
2020/12/04 06:53:11;;;;;;;5.90;3.03;;;0.30;99.90;;;;;;5109121;28;20180;-76
2020/12/04 06:55:38;;;;;;;7.07;4.10;;;0.30;99.90;;;;;;5090488;28;20204;-77
2020/12/04 06:58:04;;;;;;;4.23;3.80;;;0.30;99.90;;;;;;5090772;28;20282;-77
2020/12/04 07:00:30;;;;;;;5.50;3.67;;;0.30;99.90;;;;;;5109177;28;20188;-77
2020/12/04 07:02:57;;;;;;;4.33;3.63;;;0.30;99.90;;;;;;5108868;28;20198;-78
2020/12/04 07:05:24;;;;;;;6.53;3.33;;;0.30;99.90;;;;;;5108604;28;20350;-76
2020/12/04 07:07:50;;;;;;;4.67;2.80;;;0.30;99.90;;;;;;5088386;28;20192;-78
2020/12/04 07:10:16;;;;;;;4.50;3.17;;;0.30;99.90;;;;;;5107910;28;20196;-77
2020/12/04 07:12:42;;;;;;;6.60;4.00;;;0.30;99.90;;;;;;5087700;28;20207;-77
2020/12/04 07:15:08;;;;;;;4.37;3.43;;;0.30;99.90;;;;;;5109127;28;20682;-77
2020/12/04 07:17:33;;;;;;;4.67;3.70;;;0.30;99.90;;;;;;5097121;28;20184;-77
2020/12/04 07:19:59;;;;;;;5.03;3.63;;;0.30;99.90;;;;;;5109860;28;20314;-77
2020/12/04 07:22:26;;;;;;;5.70;4.33;;;0.20;99.90;;;;;;5090972;28;20192;-78
2020/12/04 07:24:52;;;;;;;5.93;2.97;;;0.30;99.90;;;;;;5110242;28;20196;-76
2020/12/04 07:27:39;;;;;;;5.07;3.47;;;0.30;99.90;;;;;;5112275;28;20622;-77
2020/12/04 07:30:17;;;;;;;5.03;2.97;;;0.30;99.90;;;;;;5111246;28;20226;-77
2020/12/04 07:32:52;;;;;;;4.53;3.53;;;0.30;99.90;;;;;;5111363;28;20190;-79
2020/12/04 07:35:19;;;;;;;2.90;2.43;;;0.40;99.90;;;;;;5112498;28;20195;-77
2020/12/04 07:37:45;;;;;;;3.97;3.50;;;0.40;99.90;;;;;;5112319;28;20229;-77
2020/12/04 07:40:13;;;;;;;7.20;4.63;;;0.40;99.90;;;;;;5112127;28;20188;-80
2020/12/04 07:42:39;;;;;;;4.90;3.40;;;0.40;99.90;;;;;;5111939;28;20690;-78
2020/12/04 07:45:05;;;;;;;6.73;3.30;;;0.40;99.90;;;;;;5092512;28;20196;-79
2020/12/04 07:47:30;;;;;;;3.17;2.40;;;0.40;99.90;;;;;;5092671;28;20214;-78
2020/12/04 07:50:00;;;;;;;4.97;3.23;;;0.40;99.90;;;;;;5092052;28;20208;-78
2020/12/04 07:52:33;;;;;;;3.90;3.40;;;0.40;99.90;;;;;;5092235;28;20295;-77
2020/12/04 07:55:03;;;;;;;3.93;3.13;;;0.40;99.90;;;;;;5106743;28;20239;-74
2020/12/04 07:57:52;;;;;;;4.93;2.93;;;0.30;99.90;;;;;;5107783;28;20188;-79
2020/12/04 08:00:18;;;;;;;2.83;2.53;;;0.30;99.90;;;;;;5081599;28;20234;-80
2020/12/04 08:02:44;;;;;;;4.60;2.90;;;0.30;99.90;;;;;;5110789;28;20219;-81
2020/12/04 08:05:19;;;;;;;5.40;3.80;;;0.30;99.90;;;;;;5108879;28;20653;-77
2020/12/04 08:07:53;;;;;;;3.33;2.93;;;0.30;99.90;;;;;;5108055;28;20179;-75
2020/12/04 08:10:20;;;;;;;7.50;3.70;;;0.40;99.90;;;;;;5107276;28;20180;-79
2020/12/04 08:12:49;;;;;;;5.67;3.07;;;0.50;99.90;;;;;;5089885;28;20379;-77
2020/12/04 08:15:18;;;;;;;6.53;3.50;;;0.50;99.90;;;;;;5110101;28;20214;-77
2020/12/04 08:17:43;;;;;;;4.33;2.80;;;0.50;99.90;;;;;;5092052;28;20265;-78
2020/12/04 08:20:17;;;;;;;3.63;2.77;;;0.50;99.90;;;;;;5091918;28;20219;-77
2020/12/04 08:22:48;;;;;;;4.13;3.20;;;0.50;99.90;;;;;;5091511;28;20191;-79
2020/12/04 08:25:13;;;;;;;4.67;3.17;;;0.50;99.90;;;;;;5090772;28;20269;-78
2020/12/04 08:27:43;;;;;;;3.60;2.83;;;0.50;99.90;;;;;;5090654;28;20196;-79
2020/12/04 08:30:16;;;;;;;4.63;2.50;;;0.40;99.90;;;;;;5089349;28;20212;-80
2020/12/04 08:33:06;;;;;;;3.63;3.13;;;0.40;99.90;;;;;;5090749;28;20638;-80
2020/12/04 08:35:37;;;;;;;4.83;3.17;;;0.40;99.90;;;;;;5091002;28;20197;-78
2020/12/04 08:38:06;;;;;;;7.07;3.53;;;0.40;99.90;;;;;;5091243;28;20188;-82
2020/12/04 08:40:33;;;;;;;4.90;3.13;;;0.40;99.90;;;;;;5110501;28;20561;-79
2020/12/04 08:43:13;;;;;;;4.57;2.80;;;0.50;99.90;;;;;;5110095;28;20191;-77
2020/12/04 08:45:40;;;;;;;3.60;2.73;;;0.50;99.90;;;;;;5091322;28;20218;-79
2020/12/04 08:48:08;;;;;;;4.70;3.93;;;0.40;99.90;;;;;;5110560;28;20218;-78
2020/12/04 08:51:09;;;;;;;5.73;4.63;;;0.50;99.90;;;;;;5090804;28;21241;-79
2020/12/04 08:53:36;;;;;;;4.80;4.10;;;0.60;99.90;;;;;;5092304;28;20227;-80
2020/12/04 08:56:03;;;;;;;5.53;3.90;;;0.60;99.90;;;;;;5090269;28;20244;-77
2020/12/04 08:58:30;;;;;;;4.57;3.10;;;0.60;99.90;;;;;;5110101;28;20191;-78
2020/12/04 09:00:57;;;;;;;3.90;2.97;;;0.60;99.90;;;;;;5091905;28;20229;-79
2020/12/04 09:03:26;;;;;;;5.47;4.07;;;0.60;99.90;;;;;;5109252;28;20649;-79
2020/12/04 09:05:52;;;;;;;6.30;3.70;;;0.70;99.90;;;;;;5106185;27;20272;-79
2020/12/04 09:08:18;;;;;;;6.67;4.47;;;0.70;99.90;;;;;;5091684;28;20245;-78
2020/12/04 09:10:44;;;;;;;4.20;3.23;;;0.70;99.90;;;;;;5092434;28;20725;-79
2020/12/04 09:13:10;;;;;;;4.60;3.57;;;0.80;99.90;;;;;;5111475;28;21074;-80
2020/12/04 09:15:37;;;;;;;4.07;2.83;;;0.80;99.90;;;;;;5109759;28;20223;-78
2020/12/04 09:18:03;;;;;;;5.83;4.53;;;0.80;99.90;;;;;;5087256;28;20271;-79
2020/12/04 09:20:31;;;;;;;5.00;3.20;;;0.90;99.90;;;;;;5091174;28;20684;-81
2020/12/04 09:22:57;;;;;;;6.80;3.60;;;0.80;99.90;;;;;;5091031;28;20179;-78
2020/12/04 09:25:23;;;;;;;5.63;3.67;;;0.90;99.90;;;;;;5108550;28;20199;-81
2020/12/04 09:27:50;;;;;;;5.43;3.13;;;1.00;99.90;;;;;;5108556;28;20850;-80
2020/12/04 09:30:17;;;;;;;4.03;2.90;;;1.00;99.90;;;;;;5089660;22;20233;-69
2020/12/04 09:32:45;;;;;;;3.57;2.50;;;1.00;99.90;;;;;;5083043;28;20192;-71
2020/12/04 09:35:11;;;;;;;4.57;4.03;;;1.00;99.90;;;;;;5075583;28;20201;-70
2020/12/04 09:37:38;;;;;;;3.63;2.53;;;1.10;99.90;;;;;;5075780;28;20209;-70
2020/12/04 09:40:14;;;;;;;5.37;3.67;;;1.10;99.90;;;;;;5119684;22;20269;-77
2020/12/04 09:42:42;;;;;;;5.27;3.47;;;1.20;99.90;;;;;;5095266;28;20815;-77
2020/12/04 09:45:08;;;;;;;5.80;3.57;;;1.20;99.90;;;;;;5105742;28;20942;-79
2020/12/04 09:47:35;;;;;;;4.73;2.60;;;1.20;99.90;;;;;;5107551;28;20195;-81
2020/12/04 09:50:09;;;;;;;5.90;3.13;;;1.30;99.90;;;;;;5097711;28;20212;-81
2020/12/04 09:52:36;;;;;;;3.07;2.47;;;1.30;99.90;;;;;;5095595;28;20187;-80
2020/12/04 09:55:03;;;;;;;5.10;3.50;;;1.20;99.90;;;;;;5098941;28;20228;-79
2020/12/04 09:57:28;;;;;;;3.37;2.73;;;1.30;99.90;;;;;;5094886;28;20181;-78
2020/12/04 09:59:54;;;;;;;4.63;3.60;;;1.30;99.90;;;;;;5100356;28;20216;-80
2020/12/04 10:02:20;;;;;;;7.40;5.20;;;1.30;99.90;;;;;;5099555;28;20184;-81
2020/12/04 10:04:45;;;;;;;10.87;5.53;;;1.30;99.90;;;;;;5098655;28;20198;-80
2020/12/04 10:07:11;;;;;;;9.70;4.93;;;1.40;99.90;;;;;;5096273;28;20577;-78
2020/12/04 10:09:37;;;;;;;5.80;3.73;;;1.40;99.90;;;;;;5097274;28;20200;-79
2020/12/04 10:12:04;;;;;;;7.50;4.63;;;1.50;99.90;;;;;;5100250;28;20187;-81
2020/12/04 10:14:29;;;;;;;5.13;4.13;;;1.60;99.90;;;;;;5100442;28;20180;-81
2020/12/04 10:16:55;;;;;;;5.20;4.10;;;1.60;99.90;;;;;;5099855;28;20404;-79
2020/12/04 10:19:22;;;;;;;5.40;3.70;;;1.60;99.90;;;;;;5100323;28;20200;-80
2020/12/04 10:21:48;;;;;;;18.57;9.93;;;1.70;99.90;;;;;;5100118;28;20176;-81
2020/12/04 10:24:15;;;;;;;18.37;10.83;;;1.80;99.90;;;;;;5100155;28;20180;-81
2020/12/04 10:26:43;;;;;;;13.07;9.40;;;1.80;99.90;;;;;;5101087;28;20227;-78
2020/12/04 10:29:09;;;;;;;13.80;9.17;;;1.80;99.90;;;;;;5101420;28;20200;-77
2020/12/04 10:31:35;;;;;;;9.97;6.20;;;1.90;99.90;;;;;;5100052;28;20203;-78
2020/12/04 10:34:01;;;;;;;17.77;9.93;;;1.90;99.90;;;;;;5100989;28;20238;-81
2020/12/04 10:36:27;;;;;;;18.27;11.40;;;1.90;99.90;;;;;;5100304;28;20262;-79
2020/12/04 10:38:54;;;;;;;34.80;20.97;;;1.90;99.90;;;;;;5098696;28;20224;-73
2020/12/04 10:41:20;;;;;;;7.13;5.60;;;1.90;99.90;;;;;;5096106;28;20216;-75
2020/12/04 10:43:46;;;;;;;4.17;3.40;;;2.00;99.90;;;;;;5094457;28;20199;-73
2020/12/04 10:46:12;;;;;;;5.37;3.50;;;2.10;99.90;;;;;;5095098;28;20212;-73
2020/12/04 10:48:37;;;;;;;5.13;3.80;;;2.10;99.90;;;;;;5094432;28;20291;-74
2020/12/04 10:51:03;;;;;;;5.50;4.70;;;2.10;99.90;;;;;;5094169;28;20193;-74
2020/12/04 10:53:29;;;;;;;8.63;6.83;;;2.10;99.90;;;;;;5095714;28;20192;-73
2020/12/04 10:55:55;;;;;;;10.77;8.80;;;2.10;99.90;;;;;;5094966;28;20236;-74
2020/12/04 10:58:21;;;;;;;7.97;7.17;;;2.10;99.90;;;;;;5099280;28;20197;-82
2020/12/04 11:00:49;;;;;;;6.00;4.57;;;2.00;99.90;;;;;;5100259;28;20234;-80
2020/12/04 11:03:30;;;;;;;4.97;4.27;;;2.00;99.90;;;;;;5101080;28;20179;-87
2020/12/04 11:05:56;;;;;;;4.67;3.90;;;1.90;99.90;;;;;;5099232;28;20195;-80
2020/12/04 11:08:22;;;;;;;4.43;3.90;;;1.90;99.90;;;;;;5096218;28;20208;-79
2020/12/04 11:10:48;;;;;;;3.97;3.13;;;1.90;99.90;;;;;;5098496;28;21168;-80
2020/12/04 11:13:13;;;;;;;3.90;2.87;;;1.90;99.90;;;;;;5097711;28;20184;-80
2020/12/04 11:15:39;;;;;;;7.07;4.60;;;1.90;99.90;;;;;;5096160;28;20333;-80
2020/12/04 11:18:05;;;;;;;6.63;4.00;;;2.00;99.90;;;;;;5097495;28;20201;-79
2020/12/04 11:20:31;;;;;;;3.87;3.23;;;1.90;99.90;;;;;;5098263;28;20647;-80
2020/12/04 11:22:57;;;;;;;4.90;3.13;;;1.90;99.90;;;;;;5098522;28;20181;-81
2020/12/04 11:25:23;;;;;;;4.43;2.90;;;2.00;99.90;;;;;;5098869;28;20188;-81
2020/12/04 11:27:50;;;;;;;4.57;3.33;;;1.90;99.90;;;;;;5099071;28;20199;-80
2020/12/04 11:30:17;;;;;;;5.80;3.70;;;1.90;99.90;;;;;;5097690;28;20216;-79
2020/12/04 11:32:45;;;;;;;4.63;3.77;;;1.90;99.90;;;;;;5099204;28;20271;-79
2020/12/04 11:35:12;;;;;;;6.37;4.20;;;1.80;99.90;;;;;;5097503;28;20231;-82
2020/12/04 11:37:39;;;;;;;5.30;3.87;;;1.90;99.90;;;;;;5097600;28;20275;-79
2020/12/04 11:40:07;;;;;;;4.23;2.67;;;2.00;99.90;;;;;;5099609;28;20220;-79
2020/12/04 11:42:33;;;;;;;6.30;3.60;;;2.00;99.90;;;;;;5098435;28;20185;-80
2020/12/04 11:44:59;;;;;;;6.93;4.20;;;2.10;99.90;;;;;;5106383;28;20184;-81
2020/12/04 11:47:27;;;;;;;5.03;3.20;;;2.10;99.90;;;;;;5097973;28;20678;-82
2020/12/04 11:49:54;;;;;;;3.77;2.33;;;2.10;99.90;;;;;;5099240;28;20211;-80
2020/12/04 11:52:19;;;;;;;4.33;2.70;;;2.20;99.90;;;;;;5098519;28;20253;-81
2020/12/04 11:54:45;;;;;;;6.17;3.17;;;2.20;99.90;;;;;;5097522;28;21255;-79
2020/12/04 11:57:11;;;;;;;5.07;3.50;;;2.20;99.90;;;;;;5097423;28;20195;-80
2020/12/04 11:59:37;;;;;;;5.00;2.80;;;2.20;99.90;;;;;;5099186;28;20213;-79
2020/12/04 12:02:03;;;;;;;4.93;3.47;;;2.20;99.90;;;;;;5098501;28;20212;-81
2020/12/04 12:04:29;;;;;;;7.00;4.10;;;2.20;99.90;;;;;;5098241;28;20185;-78
2020/12/04 12:06:54;;;;;;;5.53;3.90;;;2.10;99.90;;;;;;5098106;28;20236;-80
2020/12/04 12:09:20;;;;;;;5.40;4.20;;;2.20;99.90;;;;;;5097724;28;20208;-81
2020/12/04 12:11:45;;;;;;;4.37;3.43;;;2.20;99.90;;;;;;5096090;28;20189;-82
2020/12/04 12:14:11;;;;;;;4.10;2.73;;;2.30;99.90;;;;;;5097552;28;20647;-78
2020/12/04 12:16:37;;;;;;;5.10;3.00;;;2.30;99.90;;;;;;5095737;28;20216;-79
2020/12/04 12:19:02;;;;;;;5.70;4.00;;;2.30;99.90;;;;;;5096539;28;20277;-79
2020/12/04 12:21:29;;;;;;;5.67;3.43;;;2.40;99.90;;;;;;5096731;28;20220;-81
2020/12/04 12:23:54;;;;;;;4.67;3.43;;;2.40;99.90;;;;;;5096228;28;21310;-81
2020/12/04 12:26:20;;;;;;;4.43;3.20;;;2.40;99.90;;;;;;5099136;28;20220;-81
2020/12/04 12:28:46;;;;;;;6.73;3.00;;;2.40;99.90;;;;;;5094588;28;20209;-80
2020/12/04 12:31:12;;;;;;;7.20;5.60;;;2.40;99.90;;;;;;5096667;28;20199;-78
2020/12/04 12:33:38;;;;;;;3.37;2.90;;;2.50;99.90;;;;;;5096681;28;20644;-78
2020/12/04 12:36:03;;;;;;;5.73;3.23;;;2.50;99.90;;;;;;5095800;28;20216;-80
2020/12/04 12:38:29;;;;;;;3.67;2.77;;;2.60;99.90;;;;;;5096925;28;20700;-79
2020/12/04 12:40:55;;;;;;;4.80;3.50;;;2.70;99.90;;;;;;5098744;28;21164;-81
2020/12/04 12:43:20;;;;;;;4.17;2.43;;;2.70;99.90;;;;;;5096467;28;20188;-79
2020/12/04 12:45:46;;;;;;;4.90;3.50;;;2.70;99.90;;;;;;5096179;28;20708;-79
2020/12/04 12:48:12;;;;;;;5.60;4.37;;;2.80;99.90;;;;;;5098366;28;20645;-79
2020/12/04 12:50:37;;;;;;;5.13;3.97;;;2.70;99.90;;;;;;5096042;28;20187;-80
2020/12/04 12:53:03;;;;;;;4.10;3.70;;;2.80;99.90;;;;;;5095160;28;20235;-81
2020/12/04 12:55:29;;;;;;;5.10;3.53;;;2.80;99.90;;;;;;5095160;28;20750;-78
2020/12/04 12:57:55;;;;;;;4.73;3.50;;;2.70;99.90;;;;;;5097487;28;20181;-78